sensor_id;sensor_type;location;lat;lon;timestamp;pressure;altitude;pressure_sealevel;temperature;humidity
47811;BME280;33575;52.600;7.318;2023-04-26T00:00:48;101608.48;;;3.72;85.51
47811;BME280;33575;52.600;7.318;2023-04-26T00:03:19;101607.69;;;3.74;85.78
47811;BME280;33575;52.600;7.318;2023-04-26T00:05:50;101609.74;;;3.69;85.79
47811;BME280;33575;52.600;7.318;2023-04-26T00:08:21;101610.87;;;3.65;86.32
47811;BME280;33575;52.600;7.318;2023-04-26T00:10:51;101613.11;;;3.63;86.63
47811;BME280;33575;52.600;7.318;2023-04-26T00:13:22;101614.08;;;3.65;86.11
47811;BME280;33575;52.600;7.318;2023-04-26T00:15:53;101615.58;;;3.65;85.98
47811;BME280;33575;52.600;7.318;2023-04-26T00:18:24;101617.96;;;3.60;85.89
47811;BME280;33575;52.600;7.318;2023-04-26T00:20:54;101619.59;;;3.61;85.82
47811;BME280;33575;52.600;7.318;2023-04-26T00:23:25;101612.58;;;3.61;85.87
47811;BME280;33575;52.600;7.318;2023-04-26T00:25:56;101611.68;;;3.63;85.54
47811;BME280;33575;52.600;7.318;2023-04-26T00:28:28;101612.26;;;3.62;85.89
47811;BME280;33575;52.600;7.318;2023-04-26T00:30:57;101611.90;;;3.61;86.25
47811;BME280;33575;52.600;7.318;2023-04-26T00:33:28;101612.07;;;3.70;100.00
47811;BME280;33575;52.600;7.318;2023-04-26T00:35:58;101615.37;;;3.74;90.38
47811;BME280;33575;52.600;7.318;2023-04-26T00:38:29;101610.32;;;3.52;88.45
47811;BME280;33575;52.600;7.318;2023-04-26T00:41:00;101614.56;;;3.40;87.93
47811;BME280;33575;52.600;7.318;2023-04-26T00:43:31;101614.66;;;3.24;88.02
47811;BME280;33575;52.600;7.318;2023-04-26T00:46:02;101614.05;;;2.99;87.87
47811;BME280;33575;52.600;7.318;2023-04-26T00:48:32;101608.30;;;2.86;88.63
47811;BME280;33575;52.600;7.318;2023-04-26T00:51:03;101604.61;;;2.81;89.06
47811;BME280;33575;52.600;7.318;2023-04-26T00:53:34;101605.37;;;2.76;89.70
47811;BME280;33575;52.600;7.318;2023-04-26T00:56:06;101605.08;;;2.72;89.61
47811;BME280;33575;52.600;7.318;2023-04-26T00:58:36;101603.40;;;2.66;89.15
47811;BME280;33575;52.600;7.318;2023-04-26T01:01:06;101606.35;;;2.64;89.89
47811;BME280;33575;52.600;7.318;2023-04-26T01:03:37;101606.11;;;2.68;89.96
47811;BME280;33575;52.600;7.318;2023-04-26T01:06:08;101603.83;;;2.73;89.99
47811;BME280;33575;52.600;7.318;2023-04-26T01:08:39;101604.23;;;2.78;90.28
47811;BME280;33575;52.600;7.318;2023-04-26T01:11:09;101604.52;;;2.87;89.43
47811;BME280;33575;52.600;7.318;2023-04-26T01:13:41;101605.94;;;2.92;89.51
47811;BME280;33575;52.600;7.318;2023-04-26T01:16:11;101609.33;;;2.94;89.54
47811;BME280;33575;52.600;7.318;2023-04-26T01:18:41;101608.03;;;2.97;88.96
47811;BME280;33575;52.600;7.318;2023-04-26T01:21:18;101612.54;;;2.95;89.28
47811;BME280;33575;52.600;7.318;2023-04-26T01:23:43;101614.15;;;2.90;89.61
47811;BME280;33575;52.600;7.318;2023-04-26T01:26:14;101614.43;;;2.86;89.81
47811;BME280;33575;52.600;7.318;2023-04-26T01:28:45;101612.31;;;2.79;90.11
47811;BME280;33575;52.600;7.318;2023-04-26T01:31:16;101613.24;;;2.79;89.88
47811;BME280;33575;52.600;7.318;2023-04-26T01:33:46;101610.47;;;2.74;90.25
47811;BME280;33575;52.600;7.318;2023-04-26T01:36:17;101607.67;;;2.79;89.61
47811;BME280;33575;52.600;7.318;2023-04-26T01:38:48;101609.04;;;2.80;89.55
47811;BME280;33575;52.600;7.318;2023-04-26T01:41:19;101610.37;;;2.78;89.83
47811;BME280;33575;52.600;7.318;2023-04-26T01:43:50;101609.59;;;2.81;89.26
47811;BME280;33575;52.600;7.318;2023-04-26T01:46:21;101609.07;;;2.76;89.62
47811;BME280;33575;52.600;7.318;2023-04-26T01:48:52;101606.01;;;2.68;90.41
47811;BME280;33575;52.600;7.318;2023-04-26T01:51:22;101610.80;;;2.75;89.97
47811;BME280;33575;52.600;7.318;2023-04-26T01:53:53;101607.76;;;2.80;89.77
47811;BME280;33575;52.600;7.318;2023-04-26T01:56:24;101602.82;;;2.80;89.91
47811;BME280;33575;52.600;7.318;2023-04-26T01:58:55;101606.83;;;2.76;90.48
47811;BME280;33575;52.600;7.318;2023-04-26T02:01:26;101606.20;;;2.77;89.69
47811;BME280;33575;52.600;7.318;2023-04-26T02:03:56;101606.71;;;2.78;90.12
47811;BME280;33575;52.600;7.318;2023-04-26T02:06:28;101608.62;;;2.79;90.17
47811;BME280;33575;52.600;7.318;2023-04-26T02:08:58;101613.32;;;2.84;90.40
47811;BME280;33575;52.600;7.318;2023-04-26T02:11:29;101612.10;;;2.86;90.42
47811;BME280;33575;52.600;7.318;2023-04-26T02:14:00;101612.17;;;2.86;90.16
47811;BME280;33575;52.600;7.318;2023-04-26T02:16:31;101609.13;;;2.88;89.96
47811;BME280;33575;52.600;7.318;2023-04-26T02:19:01;101605.78;;;2.89;90.63
47811;BME280;33575;52.600;7.318;2023-04-26T02:21:32;101605.99;;;2.89;90.56
47811;BME280;33575;52.600;7.318;2023-04-26T02:24:03;101608.67;;;2.94;90.42
47811;BME280;33575;52.600;7.318;2023-04-26T02:26:34;101604.32;;;2.96;90.41
47811;BME280;33575;52.600;7.318;2023-04-26T02:29:05;101609.31;;;2.98;91.05
47811;BME280;33575;52.600;7.318;2023-04-26T02:31:36;101609.17;;;3.01;90.54
47811;BME280;33575;52.600;7.318;2023-04-26T02:34:07;101612.75;;;3.01;90.35
47811;BME280;33575;52.600;7.318;2023-04-26T02:36:37;101613.60;;;3.04;90.40
47811;BME280;33575;52.600;7.318;2023-04-26T02:39:08;101613.53;;;3.03;90.62
47811;BME280;33575;52.600;7.318;2023-04-26T02:41:38;101612.81;;;3.05;90.52
47811;BME280;33575;52.600;7.318;2023-04-26T02:44:09;101614.10;;;3.00;90.93
47811;BME280;33575;52.600;7.318;2023-04-26T02:46:40;101615.71;;;3.04;90.51
47811;BME280;33575;52.600;7.318;2023-04-26T02:49:11;101615.69;;;3.08;90.03
47811;BME280;33575;52.600;7.318;2023-04-26T02:51:41;101609.96;;;3.08;90.08
47811;BME280;33575;52.600;7.318;2023-04-26T02:54:12;101608.94;;;3.07;90.48
47811;BME280;33575;52.600;7.318;2023-04-26T02:56:43;101607.08;;;3.11;90.15
47811;BME280;33575;52.600;7.318;2023-04-26T02:59:14;101605.12;;;3.16;89.75
47811;BME280;33575;52.600;7.318;2023-04-26T03:01:44;101607.64;;;3.17;89.29
47811;BME280;33575;52.600;7.318;2023-04-26T03:04:15;101604.89;;;3.13;89.70
47811;BME280;33575;52.600;7.318;2023-04-26T03:06:46;101606.36;;;3.07;90.12
47811;BME280;33575;52.600;7.318;2023-04-26T03:09:17;101605.50;;;3.10;89.81
47811;BME280;33575;52.600;7.318;2023-04-26T03:11:51;101604.91;;;3.03;90.31
47811;BME280;33575;52.600;7.318;2023-04-26T03:14:18;101605.61;;;3.00;90.24
47811;BME280;33575;52.600;7.318;2023-04-26T03:16:49;101603.92;;;3.00;90.28
47811;BME280;33575;52.600;7.318;2023-04-26T03:19:20;101603.85;;;2.96;90.43
47811;BME280;33575;52.600;7.318;2023-04-26T03:21:50;101609.35;;;2.93;90.36
47811;BME280;33575;52.600;7.318;2023-04-26T03:24:21;101604.01;;;2.91;90.73
47811;BME280;33575;52.600;7.318;2023-04-26T03:26:52;101603.61;;;2.94;90.49
47811;BME280;33575;52.600;7.318;2023-04-26T03:29:23;101602.31;;;2.89;91.19
47811;BME280;33575;52.600;7.318;2023-04-26T03:31:54;101600.47;;;2.89;90.75
47811;BME280;33575;52.600;7.318;2023-04-26T03:34:24;101597.48;;;2.91;90.84
47811;BME280;33575;52.600;7.318;2023-04-26T03:36:55;101600.77;;;2.92;90.62
47811;BME280;33575;52.600;7.318;2023-04-26T03:39:26;101597.37;;;2.85;91.20
47811;BME280;33575;52.600;7.318;2023-04-26T03:41:57;101600.45;;;2.86;90.85
47811;BME280;33575;52.600;7.318;2023-04-26T03:44:29;101597.19;;;2.82;91.12
47811;BME280;33575;52.600;7.318;2023-04-26T03:46:58;101598.44;;;2.85;91.21
47811;BME280;33575;52.600;7.318;2023-04-26T03:49:29;101600.96;;;2.87;91.32
47811;BME280;33575;52.600;7.318;2023-04-26T03:52:00;101595.34;;;2.93;90.88
47811;BME280;33575;52.600;7.318;2023-04-26T03:54:30;101596.68;;;2.92;91.18
47811;BME280;33575;52.600;7.318;2023-04-26T03:57:01;101596.43;;;2.93;91.06
47811;BME280;33575;52.600;7.318;2023-04-26T03:59:32;101597.70;;;2.98;90.87
47811;BME280;33575;52.600;7.318;2023-04-26T04:02:02;101597.61;;;2.99;91.41
47811;BME280;33575;52.600;7.318;2023-04-26T04:04:34;101594.33;;;2.99;91.38
47811;BME280;33575;52.600;7.318;2023-04-26T04:07:04;101596.97;;;3.05;90.94
47811;BME280;33575;52.600;7.318;2023-04-26T04:09:35;101597.88;;;3.03;91.16
47811;BME280;33575;52.600;7.318;2023-04-26T04:12:06;101596.67;;;3.05;91.14
47811;BME280;33575;52.600;7.318;2023-04-26T04:14:37;101597.65;;;3.12;90.87
47811;BME280;33575;52.600;7.318;2023-04-26T04:17:07;101598.19;;;3.17;90.75
47811;BME280;33575;52.600;7.318;2023-04-26T04:19:38;101599.27;;;3.09;91.31
47811;BME280;33575;52.600;7.318;2023-04-26T04:22:09;101600.37;;;3.11;90.62
47811;BME280;33575;52.600;7.318;2023-04-26T04:24:40;101597.68;;;3.10;90.51
47811;BME280;33575;52.600;7.318;2023-04-26T04:27:10;101599.38;;;3.08;90.65
47811;BME280;33575;52.600;7.318;2023-04-26T04:29:41;101599.68;;;3.09;90.63
47811;BME280;33575;52.600;7.318;2023-04-26T04:32:12;101597.80;;;3.06;90.62
47811;BME280;33575;52.600;7.318;2023-04-26T04:34:43;101605.78;;;3.10;90.30
47811;BME280;33575;52.600;7.318;2023-04-26T04:37:14;101609.19;;;3.06;90.61
47811;BME280;33575;52.600;7.318;2023-04-26T04:39:45;101607.30;;;3.01;90.20
47811;BME280;33575;52.600;7.318;2023-04-26T04:42:15;101609.29;;;3.00;90.27
47811;BME280;33575;52.600;7.318;2023-04-26T04:44:46;101612.65;;;2.97;90.10
47811;BME280;33575;52.600;7.318;2023-04-26T04:47:17;101609.47;;;2.91;90.17
47811;BME280;33575;52.600;7.318;2023-04-26T04:49:48;101611.95;;;2.91;90.38
47811;BME280;33575;52.600;7.318;2023-04-26T04:52:20;101613.84;;;2.90;90.33
47811;BME280;33575;52.600;7.318;2023-04-26T04:54:49;101614.41;;;2.85;90.74
47811;BME280;33575;52.600;7.318;2023-04-26T04:57:20;101617.60;;;2.89;90.61
47811;BME280;33575;52.600;7.318;2023-04-26T04:59:51;101613.37;;;2.86;90.76
47811;BME280;33575;52.600;7.318;2023-04-26T05:02:22;101611.75;;;2.81;91.11
47811;BME280;33575;52.600;7.318;2023-04-26T05:04:53;101610.20;;;2.79;91.21
47811;BME280;33575;52.600;7.318;2023-04-26T05:07:25;101611.32;;;2.82;91.14
47811;BME280;33575;52.600;7.318;2023-04-26T05:09:54;101618.65;;;2.88;90.89
47811;BME280;33575;52.600;7.318;2023-04-26T05:12:25;101616.69;;;2.80;91.73
47811;BME280;33575;52.600;7.318;2023-04-26T05:14:56;101615.88;;;2.81;91.41
47811;BME280;33575;52.600;7.318;2023-04-26T05:17:27;101617.82;;;2.78;91.38
47811;BME280;33575;52.600;7.318;2023-04-26T05:19:58;101619.88;;;2.72;92.47
47811;BME280;33575;52.600;7.318;2023-04-26T05:22:28;101624.17;;;2.78;92.06
47811;BME280;33575;52.600;7.318;2023-04-26T05:24:59;101620.96;;;2.81;91.99
47811;BME280;33575;52.600;7.318;2023-04-26T05:27:30;101626.77;;;2.87;91.96
47811;BME280;33575;52.600;7.318;2023-04-26T05:30:01;101627.76;;;2.95;91.71
47811;BME280;33575;52.600;7.318;2023-04-26T05:32:32;101632.17;;;2.98;91.85
47811;BME280;33575;52.600;7.318;2023-04-26T05:35:03;101635.37;;;3.01;91.84
47811;BME280;33575;52.600;7.318;2023-04-26T05:37:33;101636.09;;;2.98;92.25
47811;BME280;33575;52.600;7.318;2023-04-26T05:40:05;101638.35;;;3.03;91.93
47811;BME280;33575;52.600;7.318;2023-04-26T05:42:35;101638.27;;;3.00;92.53
47811;BME280;33575;52.600;7.318;2023-04-26T05:45:06;101636.78;;;3.04;92.29
47811;BME280;33575;52.600;7.318;2023-04-26T05:47:36;101641.67;;;3.10;92.05
47811;BME280;33575;52.600;7.318;2023-04-26T05:50:08;101643.68;;;3.13;92.45
47811;BME280;33575;52.600;7.318;2023-04-26T05:52:37;101647.47;;;3.21;92.08
47811;BME280;33575;52.600;7.318;2023-04-26T05:55:09;101648.56;;;3.26;92.00
47811;BME280;33575;52.600;7.318;2023-04-26T05:57:39;101649.42;;;3.28;92.32
47811;BME280;33575;52.600;7.318;2023-04-26T06:00:11;101655.73;;;3.28;92.35
47811;BME280;33575;52.600;7.318;2023-04-26T06:02:41;101653.86;;;3.38;92.44
47811;BME280;33575;52.600;7.318;2023-04-26T06:05:11;101654.61;;;3.40;92.31
47811;BME280;33575;52.600;7.318;2023-04-26T06:07:42;101656.84;;;3.43;92.00
47811;BME280;33575;52.600;7.318;2023-04-26T06:10:13;101662.14;;;3.48;92.22
47811;BME280;33575;52.600;7.318;2023-04-26T06:12:44;101661.45;;;3.48;92.29
47811;BME280;33575;52.600;7.318;2023-04-26T06:15:14;101661.61;;;3.58;91.93
47811;BME280;33575;52.600;7.318;2023-04-26T06:17:45;101667.60;;;3.56;92.66
47811;BME280;33575;52.600;7.318;2023-04-26T06:20:16;101665.13;;;3.69;92.29
47811;BME280;33575;52.600;7.318;2023-04-26T06:22:47;101663.98;;;3.82;91.82
47811;BME280;33575;52.600;7.318;2023-04-26T06:25:18;101663.53;;;3.87;92.01
47811;BME280;33575;52.600;7.318;2023-04-26T06:27:48;101665.92;;;3.97;91.31
47811;BME280;33575;52.600;7.318;2023-04-26T06:30:19;101664.97;;;3.97;91.76
47811;BME280;33575;52.600;7.318;2023-04-26T06:32:50;101667.07;;;4.10;91.29
47811;BME280;33575;52.600;7.318;2023-04-26T06:35:21;101672.37;;;4.20;91.71
47811;BME280;33575;52.600;7.318;2023-04-26T06:37:52;101667.43;;;4.35;92.38
47811;BME280;33575;52.600;7.318;2023-04-26T06:40:22;101671.28;;;4.47;90.68
47811;BME280;33575;52.600;7.318;2023-04-26T06:42:53;101672.67;;;4.46;89.80
47811;BME280;33575;52.600;7.318;2023-04-26T06:45:24;101674.53;;;4.28;90.97
47811;BME280;33575;52.600;7.318;2023-04-26T06:47:55;101672.84;;;4.41;89.55
47811;BME280;33575;52.600;7.318;2023-04-26T06:50:25;101676.03;;;4.44;89.43
47811;BME280;33575;52.600;7.318;2023-04-26T06:52:56;101676.46;;;4.36;90.39
47811;BME280;33575;52.600;7.318;2023-04-26T06:55:27;101677.48;;;4.39;89.42
47811;BME280;33575;52.600;7.318;2023-04-26T06:57:57;101674.29;;;4.40;89.67
47811;BME280;33575;52.600;7.318;2023-04-26T07:00:28;101676.21;;;4.28;90.05
47811;BME280;33575;52.600;7.318;2023-04-26T07:02:59;101673.66;;;4.52;89.58
47811;BME280;33575;52.600;7.318;2023-04-26T07:05:30;101676.23;;;4.65;90.49
47811;BME280;33575;52.600;7.318;2023-04-26T07:08:01;101674.99;;;4.80;89.83
47811;BME280;33575;52.600;7.318;2023-04-26T07:10:31;101670.90;;;4.91;88.97
47811;BME280;33575;52.600;7.318;2023-04-26T07:13:02;101670.76;;;4.94;89.06
47811;BME280;33575;52.600;7.318;2023-04-26T07:15:33;101670.28;;;4.91;89.62
47811;BME280;33575;52.600;7.318;2023-04-26T07:18:04;101671.14;;;4.99;88.80
47811;BME280;33575;52.600;7.318;2023-04-26T07:20:34;101670.97;;;5.11;88.21
47811;BME280;33575;52.600;7.318;2023-04-26T07:23:05;101667.77;;;5.14;88.69
47811;BME280;33575;52.600;7.318;2023-04-26T07:25:36;101668.88;;;5.04;88.08
47811;BME280;33575;52.600;7.318;2023-04-26T07:28:06;101671.03;;;5.22;88.35
47811;BME280;33575;52.600;7.318;2023-04-26T07:30:36;101673.39;;;5.31;88.26
47811;BME280;33575;52.600;7.318;2023-04-26T07:33:07;101672.99;;;5.49;87.52
47811;BME280;33575;52.600;7.318;2023-04-26T07:35:38;101676.10;;;5.58;87.46
47811;BME280;33575;52.600;7.318;2023-04-26T07:38:09;101674.12;;;5.60;87.06
47811;BME280;33575;52.600;7.318;2023-04-26T07:40:39;101676.52;;;5.45;86.89
47811;BME280;33575;52.600;7.318;2023-04-26T07:43:10;101676.14;;;5.54;87.49
47811;BME280;33575;52.600;7.318;2023-04-26T07:45:41;101677.29;;;5.53;86.42
47811;BME280;33575;52.600;7.318;2023-04-26T07:48:12;101676.31;;;5.76;86.20
47811;BME280;33575;52.600;7.318;2023-04-26T07:50:42;101681.57;;;5.72;85.82
47811;BME280;33575;52.600;7.318;2023-04-26T07:53:13;101681.25;;;5.90;85.49
47811;BME280;33575;52.600;7.318;2023-04-26T07:55:44;101674.23;;;5.84;84.62
47811;BME280;33575;52.600;7.318;2023-04-26T07:58:14;101680.73;;;5.92;84.31
47811;BME280;33575;52.600;7.318;2023-04-26T08:00:45;101679.60;;;6.04;84.77
47811;BME280;33575;52.600;7.318;2023-04-26T08:03:16;101683.13;;;6.10;82.62
47811;BME280;33575;52.600;7.318;2023-04-26T08:05:47;101685.31;;;6.22;83.12
47811;BME280;33575;52.600;7.318;2023-04-26T08:08:20;101683.33;;;6.25;82.33
47811;BME280;33575;52.600;7.318;2023-04-26T08:10:48;101681.91;;;6.13;82.03
47811;BME280;33575;52.600;7.318;2023-04-26T08:13:18;101680.59;;;6.04;79.91
47811;BME280;33575;52.600;7.318;2023-04-26T08:15:49;101684.03;;;6.18;81.23
47811;BME280;33575;52.600;7.318;2023-04-26T08:18:20;101676.25;;;6.12;80.82
47811;BME280;33575;52.600;7.318;2023-04-26T08:20:50;101684.81;;;6.15;80.18
47811;BME280;33575;52.600;7.318;2023-04-26T08:23:21;101682.85;;;6.30;80.01
47811;BME280;33575;52.600;7.318;2023-04-26T08:25:52;101685.61;;;6.20;79.75
47811;BME280;33575;52.600;7.318;2023-04-26T08:28:22;101684.50;;;6.38;79.48
47811;BME280;33575;52.600;7.318;2023-04-26T08:30:53;101683.99;;;6.47;79.95
47811;BME280;33575;52.600;7.318;2023-04-26T08:33:24;101681.31;;;6.51;79.16
47811;BME280;33575;52.600;7.318;2023-04-26T08:35:54;101681.41;;;6.76;79.74
47811;BME280;33575;52.600;7.318;2023-04-26T08:38:25;101689.69;;;6.70;78.10
47811;BME280;33575;52.600;7.318;2023-04-26T08:40:58;101690.27;;;6.75;76.69
47811;BME280;33575;52.600;7.318;2023-04-26T08:43:27;101689.36;;;6.81;77.25
47811;BME280;33575;52.600;7.318;2023-04-26T08:45:58;101686.67;;;6.82;76.66
47811;BME280;33575;52.600;7.318;2023-04-26T08:48:31;101687.63;;;6.74;76.95
47811;BME280;33575;52.600;7.318;2023-04-26T08:50:59;101693.64;;;6.95;77.75
47811;BME280;33575;52.600;7.318;2023-04-26T08:53:30;101695.17;;;6.96;76.34
47811;BME280;33575;52.600;7.318;2023-04-26T08:56:01;101694.45;;;6.90;75.13
47811;BME280;33575;52.600;7.318;2023-04-26T08:58:31;101694.56;;;6.82;76.71
47811;BME280;33575;52.600;7.318;2023-04-26T09:01:01;101693.99;;;6.55;77.24
47811;BME280;33575;52.600;7.318;2023-04-26T09:03:33;101695.14;;;6.77;77.41
47811;BME280;33575;52.600;7.318;2023-04-26T09:06:06;101698.11;;;6.60;77.76
47811;BME280;33575;52.600;7.318;2023-04-26T09:08:35;101693.25;;;6.81;77.30
47811;BME280;33575;52.600;7.318;2023-04-26T09:11:04;101703.75;;;6.68;77.39
47811;BME280;33575;52.600;7.318;2023-04-26T09:13:35;101699.00;;;6.94;76.22
47811;BME280;33575;52.600;7.318;2023-04-26T09:16:06;101693.98;;;7.08;76.60
47811;BME280;33575;52.600;7.318;2023-04-26T09:18:46;101700.92;;;7.18;76.88
47811;BME280;33575;52.600;7.318;2023-04-26T09:21:08;101701.48;;;7.34;77.17
47811;BME280;33575;52.600;7.318;2023-04-26T09:26:14;101695.60;;;7.24;74.26
47811;BME280;33575;52.600;7.318;2023-04-26T09:28:39;101695.78;;;7.19;74.00
47811;BME280;33575;52.600;7.318;2023-04-26T09:31:09;101694.32;;;7.35;74.82
47811;BME280;33575;52.600;7.318;2023-04-26T09:36:11;101691.35;;;7.36;71.66
47811;BME280;33575;52.600;7.318;2023-04-26T09:38:42;101688.34;;;7.35;72.53
47811;BME280;33575;52.600;7.318;2023-04-26T09:41:12;101691.93;;;7.47;71.44
47811;BME280;33575;52.600;7.318;2023-04-26T09:43:43;101693.93;;;7.53;72.50
47811;BME280;33575;52.600;7.318;2023-04-26T09:46:21;101692.09;;;7.59;72.65
47811;BME280;33575;52.600;7.318;2023-04-26T09:48:44;101691.52;;;7.46;72.09
47811;BME280;33575;52.600;7.318;2023-04-26T09:51:14;101692.11;;;7.51;71.74
47811;BME280;33575;52.600;7.318;2023-04-26T09:53:48;101685.66;;;7.66;72.61
47811;BME280;33575;52.600;7.318;2023-04-26T09:56:17;101683.69;;;7.65;73.03
47811;BME280;33575;52.600;7.318;2023-04-26T09:58:54;101686.69;;;7.79;73.89
47811;BME280;33575;52.600;7.318;2023-04-26T10:01:18;101684.57;;;7.68;70.48
47811;BME280;33575;52.600;7.318;2023-04-26T10:03:48;101685.23;;;8.03;71.58
47811;BME280;33575;52.600;7.318;2023-04-26T10:06:18;101684.85;;;8.00;70.06
47811;BME280;33575;52.600;7.318;2023-04-26T10:08:49;101686.73;;;8.09;70.25
47811;BME280;33575;52.600;7.318;2023-04-26T10:11:20;101685.35;;;7.76;72.50
47811;BME280;33575;52.600;7.318;2023-04-26T10:13:50;101686.19;;;7.95;71.74
47811;BME280;33575;52.600;7.318;2023-04-26T10:16:21;101687.86;;;7.83;72.69
47811;BME280;33575;52.600;7.318;2023-04-26T10:18:52;101687.24;;;7.87;73.52
47811;BME280;33575;52.600;7.318;2023-04-26T10:21:28;101686.54;;;7.87;73.89
47811;BME280;33575;52.600;7.318;2023-04-26T10:23:53;101683.62;;;7.96;73.31
47811;BME280;33575;52.600;7.318;2023-04-26T10:28:59;101682.49;;;7.98;74.02
47811;BME280;33575;52.600;7.318;2023-04-26T10:31:25;101682.89;;;7.75;74.71
47811;BME280;33575;52.600;7.318;2023-04-26T10:36:26;101677.82;;;7.96;74.49
47811;BME280;33575;52.600;7.318;2023-04-26T10:41:29;101680.59;;;7.96;73.09
47811;BME280;33575;52.600;7.318;2023-04-26T10:44:00;101682.49;;;7.94;75.06
47811;BME280;33575;52.600;7.318;2023-04-26T10:46:34;101681.96;;;8.05;74.08
47811;BME280;33575;52.600;7.318;2023-04-26T10:51:29;101675.96;;;7.89;73.73
47811;BME280;33575;52.600;7.318;2023-04-26T10:54:00;101671.28;;;7.98;73.39
47811;BME280;33575;52.600;7.318;2023-04-26T10:59:06;101672.20;;;7.71;73.11
47811;BME280;33575;52.600;7.318;2023-04-26T11:01:32;101672.16;;;7.83;73.07
47811;BME280;33575;52.600;7.318;2023-04-26T11:04:06;101674.89;;;7.86;73.31
47811;BME280;33575;52.600;7.318;2023-04-26T11:14:05;101686.16;;;7.96;74.22
47811;BME280;33575;52.600;7.318;2023-04-26T11:16:36;101685.15;;;7.79;73.74
47811;BME280;33575;52.600;7.318;2023-04-26T11:19:08;101679.75;;;7.81;73.77
47811;BME280;33575;52.600;7.318;2023-04-26T11:21:37;101675.07;;;8.09;74.70
47811;BME280;33575;52.600;7.318;2023-04-26T11:24:08;101674.93;;;8.20;76.79
47811;BME280;33575;52.600;7.318;2023-04-26T11:26:38;101667.89;;;8.49;75.09
47811;BME280;33575;52.600;7.318;2023-04-26T11:29:08;101658.44;;;8.78;74.35
47811;BME280;33575;52.600;7.318;2023-04-26T11:31:39;101658.91;;;9.04;75.40
47811;BME280;33575;52.600;7.318;2023-04-26T11:34:10;101651.10;;;9.28;72.90
47811;BME280;33575;52.600;7.318;2023-04-26T11:36:40;101657.72;;;9.61;73.38
47811;BME280;33575;52.600;7.318;2023-04-26T11:39:14;101655.20;;;9.80;69.68
47811;BME280;33575;52.600;7.318;2023-04-26T11:41:41;101654.86;;;10.03;71.38
47811;BME280;33575;52.600;7.318;2023-04-26T11:44:12;101654.19;;;10.13;69.09
47811;BME280;33575;52.600;7.318;2023-04-26T11:46:43;101659.79;;;10.11;70.14
47811;BME280;33575;52.600;7.318;2023-04-26T11:49:13;101652.20;;;10.05;69.20
47811;BME280;33575;52.600;7.318;2023-04-26T11:51:47;101649.52;;;10.13;69.58
47811;BME280;33575;52.600;7.318;2023-04-26T11:56:45;101649.76;;;10.34;68.64
47811;BME280;33575;52.600;7.318;2023-04-26T11:59:22;101659.94;;;10.44;68.51
47811;BME280;33575;52.600;7.318;2023-04-26T12:01:49;101659.98;;;10.41;66.23
47811;BME280;33575;52.600;7.318;2023-04-26T12:04:17;101660.77;;;10.28;65.64
47811;BME280;33575;52.600;7.318;2023-04-26T12:06:47;101659.63;;;10.31;67.23
47811;BME280;33575;52.600;7.318;2023-04-26T12:09:21;101660.95;;;10.17;66.07
47811;BME280;33575;52.600;7.318;2023-04-26T12:11:53;101657.48;;;9.99;65.37
47811;BME280;33575;52.600;7.318;2023-04-26T12:14:18;101659.90;;;9.91;65.76
47811;BME280;33575;52.600;7.318;2023-04-26T12:16:49;101657.84;;;9.80;64.27
47811;BME280;33575;52.600;7.318;2023-04-26T12:19:22;101662.58;;;9.81;65.17
47811;BME280;33575;52.600;7.318;2023-04-26T12:21:50;101666.79;;;9.87;66.94
47811;BME280;33575;52.600;7.318;2023-04-26T12:24:22;101666.33;;;9.95;66.85
47811;BME280;33575;52.600;7.318;2023-04-26T12:26:51;101680.76;;;9.83;65.52
47811;BME280;33575;52.600;7.318;2023-04-26T12:29:22;101684.81;;;9.34;68.30
47811;BME280;33575;52.600;7.318;2023-04-26T12:31:52;101686.01;;;9.12;69.52
47811;BME280;33575;52.600;7.318;2023-04-26T12:34:23;101685.48;;;8.85;72.37
47811;BME280;33575;52.600;7.318;2023-04-26T12:36:53;101692.50;;;8.31;75.35
47811;BME280;33575;52.600;7.318;2023-04-26T12:39:23;101694.75;;;8.43;74.52
47811;BME280;33575;52.600;7.318;2023-04-26T12:41:54;101698.50;;;8.01;76.66
47811;BME280;33575;52.600;7.318;2023-04-26T12:44:25;101694.72;;;8.07;75.43
47811;BME280;33575;52.600;7.318;2023-04-26T12:46:55;101696.84;;;8.10;75.20
47811;BME280;33575;52.600;7.318;2023-04-26T12:49:26;101698.36;;;8.23;75.14
47811;BME280;33575;52.600;7.318;2023-04-26T12:51:56;101704.76;;;8.27;74.86
47811;BME280;33575;52.600;7.318;2023-04-26T12:54:27;101704.35;;;8.19;74.65
47811;BME280;33575;52.600;7.318;2023-04-26T12:56:58;101702.36;;;8.20;75.82
47811;BME280;33575;52.600;7.318;2023-04-26T12:59:28;101702.80;;;8.19;74.04
47811;BME280;33575;52.600;7.318;2023-04-26T13:01:59;101701.43;;;8.14;73.28
47811;BME280;33575;52.600;7.318;2023-04-26T13:04:30;101703.80;;;8.09;72.22
47811;BME280;33575;52.600;7.318;2023-04-26T13:07:00;101704.48;;;8.04;73.30
47811;BME280;33575;52.600;7.318;2023-04-26T13:09:31;101702.09;;;7.99;73.26
47811;BME280;33575;52.600;7.318;2023-04-26T13:12:01;101698.56;;;8.03;73.14
47811;BME280;33575;52.600;7.318;2023-04-26T13:14:32;101693.98;;;8.08;72.57
47811;BME280;33575;52.600;7.318;2023-04-26T13:17:03;101697.27;;;8.16;73.45
47811;BME280;33575;52.600;7.318;2023-04-26T13:19:33;101698.29;;;8.19;72.95
47811;BME280;33575;52.600;7.318;2023-04-26T13:22:04;101697.53;;;8.13;72.00
47811;BME280;33575;52.600;7.318;2023-04-26T13:24:34;101695.64;;;8.13;72.75
47811;BME280;33575;52.600;7.318;2023-04-26T13:27:05;101697.14;;;8.12;72.92
47811;BME280;33575;52.600;7.318;2023-04-26T13:29:36;101698.64;;;8.20;73.04
47811;BME280;33575;52.600;7.318;2023-04-26T13:32:06;101698.56;;;8.23;72.75
47811;BME280;33575;52.600;7.318;2023-04-26T13:34:37;101701.10;;;7.97;72.20
47811;BME280;33575;52.600;7.318;2023-04-26T13:37:07;101701.98;;;8.14;72.10
47811;BME280;33575;52.600;7.318;2023-04-26T13:39:38;101701.64;;;8.21;72.01
47811;BME280;33575;52.600;7.318;2023-04-26T13:42:09;101703.44;;;7.94;71.40
47811;BME280;33575;52.600;7.318;2023-04-26T13:44:39;101702.77;;;8.02;71.43